sensor_id;sensor_type;location;lat;lon;timestamp;P1;durP1;ratioP1;P2;durP2;ratioP2
68250;SDS011;55066;51.560;4.642;2023-05-07T00:00:01;20.45;;;10.70;;
68250;SDS011;55066;51.560;4.642;2023-05-07T00:02:26;17.27;;;9.70;;
68250;SDS011;55066;51.560;4.642;2023-05-07T00:04:51;18.33;;;10.10;;
68250;SDS011;55066;51.560;4.642;2023-05-07T00:07:17;17.60;;;10.17;;
68250;SDS011;55066;51.560;4.642;2023-05-07T00:09:43;15.15;;;9.98;;
68250;SDS011;55066;51.560;4.642;2023-05-07T00:12:08;16.30;;;10.00;;
68250;SDS011;55066;51.560;4.642;2023-05-07T00:14:34;17.23;;;10.50;;
68250;SDS011;55066;51.560;4.642;2023-05-07T00:17:00;16.00;;;10.13;;
68250;SDS011;55066;51.560;4.642;2023-05-07T00:19:25;16.83;;;10.15;;
68250;SDS011;55066;51.560;4.642;2023-05-07T00:21:51;15.13;;;9.63;;
68250;SDS011;55066;51.560;4.642;2023-05-07T00:24:18;17.75;;;9.68;;
68250;SDS011;55066;51.560;4.642;2023-05-07T00:26:43;15.55;;;9.88;;
68250;SDS011;55066;51.560;4.642;2023-05-07T00:29:09;15.27;;;9.73;;
68250;SDS011;55066;51.560;4.642;2023-05-07T00:31:34;16.63;;;9.87;;
68250;SDS011;55066;51.560;4.642;2023-05-07T00:34:00;17.60;;;9.90;;
68250;SDS011;55066;51.560;4.642;2023-05-07T00:36:25;15.18;;;9.80;;
68250;SDS011;55066;51.560;4.642;2023-05-07T00:38:53;16.13;;;9.57;;
68250;SDS011;55066;51.560;4.642;2023-05-07T00:41:20;16.73;;;9.57;;
68250;SDS011;55066;51.560;4.642;2023-05-07T00:43:46;18.77;;;9.98;;
68250;SDS011;55066;51.560;4.642;2023-05-07T00:46:11;16.13;;;9.73;;
68250;SDS011;55066;51.560;4.642;2023-05-07T00:48:38;15.20;;;9.63;;
68250;SDS011;55066;51.560;4.642;2023-05-07T00:51:04;16.67;;;10.67;;
68250;SDS011;55066;51.560;4.642;2023-05-07T00:53:30;15.73;;;9.77;;
68250;SDS011;55066;51.560;4.642;2023-05-07T00:55:57;16.05;;;9.90;;
68250;SDS011;55066;51.560;4.642;2023-05-07T00:58:23;16.87;;;9.87;;
68250;SDS011;55066;51.560;4.642;2023-05-07T01:00:48;16.35;;;9.93;;
68250;SDS011;55066;51.560;4.642;2023-05-07T01:03:18;17.58;;;10.23;;
68250;SDS011;55066;51.560;4.642;2023-05-07T01:05:43;21.53;;;10.80;;
68250;SDS011;55066;51.560;4.642;2023-05-07T01:08:11;16.73;;;9.75;;
68250;SDS011;55066;51.560;4.642;2023-05-07T01:10:38;18.13;;;10.82;;
68250;SDS011;55066;51.560;4.642;2023-05-07T01:13:11;18.20;;;10.57;;
68250;SDS011;55066;51.560;4.642;2023-05-07T01:15:38;17.13;;;10.75;;
68250;SDS011;55066;51.560;4.642;2023-05-07T01:18:04;17.67;;;10.60;;
68250;SDS011;55066;51.560;4.642;2023-05-07T01:20:34;18.38;;;10.68;;
68250;SDS011;55066;51.560;4.642;2023-05-07T01:23:02;17.70;;;10.85;;
68250;SDS011;55066;51.560;4.642;2023-05-07T01:25:28;22.53;;;11.77;;
68250;SDS011;55066;51.560;4.642;2023-05-07T01:27:58;20.65;;;12.73;;
68250;SDS011;55066;51.560;4.642;2023-05-07T01:30:29;17.85;;;11.25;;
68250;SDS011;55066;51.560;4.642;2023-05-07T01:33:03;18.77;;;11.13;;
68250;SDS011;55066;51.560;4.642;2023-05-07T01:35:34;18.98;;;10.80;;
68250;SDS011;55066;51.560;4.642;2023-05-07T01:38:03;18.60;;;10.75;;
68250;SDS011;55066;51.560;4.642;2023-05-07T01:40:31;19.08;;;10.25;;
68250;SDS011;55066;51.560;4.642;2023-05-07T01:42:58;15.43;;;9.85;;
68250;SDS011;55066;51.560;4.642;2023-05-07T01:45:23;14.77;;;9.50;;
68250;SDS011;55066;51.560;4.642;2023-05-07T01:47:50;17.77;;;10.38;;
68250;SDS011;55066;51.560;4.642;2023-05-07T01:50:18;15.32;;;9.73;;
68250;SDS011;55066;51.560;4.642;2023-05-07T01:52:45;17.20;;;10.35;;
68250;SDS011;55066;51.560;4.642;2023-05-07T01:55:12;15.10;;;9.85;;
68250;SDS011;55066;51.560;4.642;2023-05-07T01:57:37;14.57;;;9.67;;
68250;SDS011;55066;51.560;4.642;2023-05-07T02:00:04;16.38;;;9.57;;
68250;SDS011;55066;51.560;4.642;2023-05-07T02:02:51;15.38;;;10.15;;
68250;SDS011;55066;51.560;4.642;2023-05-07T02:05:33;17.45;;;9.38;;
68250;SDS011;55066;51.560;4.642;2023-05-07T02:08:05;14.45;;;9.60;;
68250;SDS011;55066;51.560;4.642;2023-05-07T02:10:31;16.75;;;9.88;;
68250;SDS011;55066;51.560;4.642;2023-05-07T02:12:59;17.40;;;8.70;;
68250;SDS011;55066;51.560;4.642;2023-05-07T02:15:26;14.48;;;8.95;;
68250;SDS011;55066;51.560;4.642;2023-05-07T02:20:30;12.90;;;8.77;;
68250;SDS011;55066;51.560;4.642;2023-05-07T02:22:56;14.47;;;9.03;;
68250;SDS011;55066;51.560;4.642;2023-05-07T02:25:21;13.77;;;8.90;;
68250;SDS011;55066;51.560;4.642;2023-05-07T02:27:48;12.95;;;8.20;;
68250;SDS011;55066;51.560;4.642;2023-05-07T02:30:15;15.40;;;8.43;;
68250;SDS011;55066;51.560;4.642;2023-05-07T02:32:42;18.52;;;8.90;;
68250;SDS011;55066;51.560;4.642;2023-05-07T02:35:08;13.18;;;8.27;;
68250;SDS011;55066;51.560;4.642;2023-05-07T02:37:34;15.27;;;9.07;;
68250;SDS011;55066;51.560;4.642;2023-05-07T02:40:00;15.35;;;8.88;;
68250;SDS011;55066;51.560;4.642;2023-05-07T02:42:25;15.90;;;8.90;;
68250;SDS011;55066;51.560;4.642;2023-05-07T02:44:52;13.88;;;8.27;;
68250;SDS011;55066;51.560;4.642;2023-05-07T02:47:18;14.17;;;8.50;;
68250;SDS011;55066;51.560;4.642;2023-05-07T02:49:44;15.07;;;8.40;;
68250;SDS011;55066;51.560;4.642;2023-05-07T02:52:09;14.97;;;8.37;;
68250;SDS011;55066;51.560;4.642;2023-05-07T02:54:35;13.53;;;8.60;;
68250;SDS011;55066;51.560;4.642;2023-05-07T02:57:03;16.67;;;9.25;;
68250;SDS011;55066;51.560;4.642;2023-05-07T02:59:30;17.23;;;8.73;;
68250;SDS011;55066;51.560;4.642;2023-05-07T03:01:56;14.63;;;8.80;;
68250;SDS011;55066;51.560;4.642;2023-05-07T03:04:22;15.93;;;8.33;;
68250;SDS011;55066;51.560;4.642;2023-05-07T03:06:49;12.63;;;8.52;;
68250;SDS011;55066;51.560;4.642;2023-05-07T03:09:14;13.75;;;9.07;;
68250;SDS011;55066;51.560;4.642;2023-05-07T03:11:40;15.63;;;9.13;;
68250;SDS011;55066;51.560;4.642;2023-05-07T03:14:05;16.37;;;9.20;;
68250;SDS011;55066;51.560;4.642;2023-05-07T03:16:30;14.43;;;8.70;;
68250;SDS011;55066;51.560;4.642;2023-05-07T03:18:56;14.00;;;8.97;;
68250;SDS011;55066;51.560;4.642;2023-05-07T03:21:22;15.02;;;10.10;;
68250;SDS011;55066;51.560;4.642;2023-05-07T03:23:48;15.73;;;9.32;;
68250;SDS011;55066;51.560;4.642;2023-05-07T03:26:13;18.33;;;9.63;;
68250;SDS011;55066;51.560;4.642;2023-05-07T03:28:41;16.98;;;9.35;;
68250;SDS011;55066;51.560;4.642;2023-05-07T03:31:11;17.23;;;9.65;;
68250;SDS011;55066;51.560;4.642;2023-05-07T03:33:39;15.13;;;9.35;;
68250;SDS011;55066;51.560;4.642;2023-05-07T03:36:16;16.08;;;9.70;;
68250;SDS011;55066;51.560;4.642;2023-05-07T03:38:41;16.15;;;9.85;;
68250;SDS011;55066;51.560;4.642;2023-05-07T03:41:07;14.75;;;9.32;;
68250;SDS011;55066;51.560;4.642;2023-05-07T03:43:32;15.85;;;9.07;;
68250;SDS011;55066;51.560;4.642;2023-05-07T03:46:04;15.60;;;9.40;;
68250;SDS011;55066;51.560;4.642;2023-05-07T03:48:29;16.95;;;9.68;;
68250;SDS011;55066;51.560;4.642;2023-05-07T03:50:57;14.27;;;9.25;;
68250;SDS011;55066;51.560;4.642;2023-05-07T03:53:27;14.57;;;9.30;;
68250;SDS011;55066;51.560;4.642;2023-05-07T03:55:53;16.13;;;9.43;;
68250;SDS011;55066;51.560;4.642;2023-05-07T03:58:20;16.92;;;9.63;;
68250;SDS011;55066;51.560;4.642;2023-05-07T04:00:45;15.97;;;9.63;;
68250;SDS011;55066;51.560;4.642;2023-05-07T04:03:18;16.23;;;9.77;;
68250;SDS011;55066;51.560;4.642;2023-05-07T04:05:43;18.67;;;9.57;;
68250;SDS011;55066;51.560;4.642;2023-05-07T04:08:09;17.75;;;9.93;;
68250;SDS011;55066;51.560;4.642;2023-05-07T04:10:38;14.82;;;9.73;;
68250;SDS011;55066;51.560;4.642;2023-05-07T04:13:07;16.40;;;10.43;;
68250;SDS011;55066;51.560;4.642;2023-05-07T04:15:35;19.48;;;10.38;;
68250;SDS011;55066;51.560;4.642;2023-05-07T04:18:04;18.63;;;10.40;;
68250;SDS011;55066;51.560;4.642;2023-05-07T04:20:33;19.50;;;10.68;;
68250;SDS011;55066;51.560;4.642;2023-05-07T04:23:02;16.25;;;10.13;;
68250;SDS011;55066;51.560;4.642;2023-05-07T04:25:28;18.90;;;10.18;;
68250;SDS011;55066;51.560;4.642;2023-05-07T04:27:59;19.30;;;10.60;;
68250;SDS011;55066;51.560;4.642;2023-05-07T04:30:27;17.30;;;10.15;;
68250;SDS011;55066;51.560;4.642;2023-05-07T04:32:52;18.90;;;10.83;;
68250;SDS011;55066;51.560;4.642;2023-05-07T04:35:18;18.70;;;10.65;;
68250;SDS011;55066;51.560;4.642;2023-05-07T04:37:44;20.08;;;11.75;;
68250;SDS011;55066;51.560;4.642;2023-05-07T04:40:09;21.53;;;10.90;;
68250;SDS011;55066;51.560;4.642;2023-05-07T04:42:35;20.17;;;11.20;;
68250;SDS011;55066;51.560;4.642;2023-05-07T04:45:02;18.98;;;10.05;;
68250;SDS011;55066;51.560;4.642;2023-05-07T04:47:30;19.98;;;11.48;;
68250;SDS011;55066;51.560;4.642;2023-05-07T04:49:57;20.08;;;11.07;;
68250;SDS011;55066;51.560;4.642;2023-05-07T04:52:23;19.33;;;10.90;;
68250;SDS011;55066;51.560;4.642;2023-05-07T04:54:48;17.77;;;11.27;;
68250;SDS011;55066;51.560;4.642;2023-05-07T04:57:14;16.50;;;10.83;;
68250;SDS011;55066;51.560;4.642;2023-05-07T04:59:41;18.02;;;10.77;;
68250;SDS011;55066;51.560;4.642;2023-05-07T05:02:07;20.10;;;11.07;;
68250;SDS011;55066;51.560;4.642;2023-05-07T05:04:32;18.70;;;11.63;;
68250;SDS011;55066;51.560;4.642;2023-05-07T05:06:58;20.57;;;11.60;;
68250;SDS011;55066;51.560;4.642;2023-05-07T05:09:24;18.45;;;11.70;;
68250;SDS011;55066;51.560;4.642;2023-05-07T05:11:50;18.23;;;10.70;;
68250;SDS011;55066;51.560;4.642;2023-05-07T05:14:15;21.95;;;12.27;;
68250;SDS011;55066;51.560;4.642;2023-05-07T05:16:42;20.17;;;12.25;;
68250;SDS011;55066;51.560;4.642;2023-05-07T05:19:08;21.52;;;12.00;;
68250;SDS011;55066;51.560;4.642;2023-05-07T05:21:36;20.52;;;12.02;;
68250;SDS011;55066;51.560;4.642;2023-05-07T05:24:06;19.25;;;11.85;;
68250;SDS011;55066;51.560;4.642;2023-05-07T05:26:32;22.73;;;12.90;;
68250;SDS011;55066;51.560;4.642;2023-05-07T05:28:57;20.60;;;12.70;;
68250;SDS011;55066;51.560;4.642;2023-05-07T05:31:25;21.38;;;12.48;;
68250;SDS011;55066;51.560;4.642;2023-05-07T05:33:50;21.53;;;12.27;;
68250;SDS011;55066;51.560;4.642;2023-05-07T05:36:16;22.42;;;12.77;;
68250;SDS011;55066;51.560;4.642;2023-05-07T05:38:43;21.03;;;12.23;;
68250;SDS011;55066;51.560;4.642;2023-05-07T05:41:11;26.00;;;13.38;;
68250;SDS011;55066;51.560;4.642;2023-05-07T05:43:36;21.83;;;13.23;;
68250;SDS011;55066;51.560;4.642;2023-05-07T05:46:02;24.65;;;14.32;;
68250;SDS011;55066;51.560;4.642;2023-05-07T05:48:29;24.05;;;13.57;;
68250;SDS011;55066;51.560;4.642;2023-05-07T05:50:55;23.60;;;13.63;;
68250;SDS011;55066;51.560;4.642;2023-05-07T05:53:20;26.60;;;14.43;;
68250;SDS011;55066;51.560;4.642;2023-05-07T05:55:46;23.87;;;13.37;;
68250;SDS011;55066;51.560;4.642;2023-05-07T05:58:13;24.75;;;14.38;;
68250;SDS011;55066;51.560;4.642;2023-05-07T06:00:45;23.77;;;14.48;;
68250;SDS011;55066;51.560;4.642;2023-05-07T06:03:13;23.15;;;14.18;;
68250;SDS011;55066;51.560;4.642;2023-05-07T06:05:41;23.30;;;13.63;;
68250;SDS011;55066;51.560;4.642;2023-05-07T06:08:07;24.20;;;14.20;;
68250;SDS011;55066;51.560;4.642;2023-05-07T06:10:35;23.05;;;13.77;;
68250;SDS011;55066;51.560;4.642;2023-05-07T06:13:03;26.67;;;14.85;;
68250;SDS011;55066;51.560;4.642;2023-05-07T06:15:30;25.95;;;15.25;;
68250;SDS011;55066;51.560;4.642;2023-05-07T06:18:02;31.75;;;14.77;;
68250;SDS011;55066;51.560;4.642;2023-05-07T06:20:27;23.52;;;14.48;;
68250;SDS011;55066;51.560;4.642;2023-05-07T06:22:55;23.58;;;14.18;;
68250;SDS011;55066;51.560;4.642;2023-05-07T06:25:23;24.50;;;14.43;;
68250;SDS011;55066;51.560;4.642;2023-05-07T06:27:49;22.98;;;14.23;;
68250;SDS011;55066;51.560;4.642;2023-05-07T06:30:14;26.73;;;15.17;;
68250;SDS011;55066;51.560;4.642;2023-05-07T06:32:41;23.92;;;14.73;;
68250;SDS011;55066;51.560;4.642;2023-05-07T06:35:07;23.33;;;14.23;;
68250;SDS011;55066;51.560;4.642;2023-05-07T06:37:35;26.80;;;14.75;;
68250;SDS011;55066;51.560;4.642;2023-05-07T06:40:05;25.27;;;15.40;;
68250;SDS011;55066;51.560;4.642;2023-05-07T06:42:32;26.23;;;14.68;;
68250;SDS011;55066;51.560;4.642;2023-05-07T06:45:15;27.15;;;14.80;;
68250;SDS011;55066;51.560;4.642;2023-05-07T06:47:40;24.70;;;14.57;;
68250;SDS011;55066;51.560;4.642;2023-05-07T06:50:06;24.33;;;15.07;;
68250;SDS011;55066;51.560;4.642;2023-05-07T06:52:32;25.60;;;15.38;;
68250;SDS011;55066;51.560;4.642;2023-05-07T06:54:58;25.67;;;16.17;;
68250;SDS011;55066;51.560;4.642;2023-05-07T06:57:24;25.02;;;15.30;;
68250;SDS011;55066;51.560;4.642;2023-05-07T06:59:52;25.52;;;15.90;;
68250;SDS011;55066;51.560;4.642;2023-05-07T07:02:19;25.05;;;14.60;;
68250;SDS011;55066;51.560;4.642;2023-05-07T07:04:46;26.20;;;15.70;;
68250;SDS011;55066;51.560;4.642;2023-05-07T07:07:13;28.85;;;16.58;;
68250;SDS011;55066;51.560;4.642;2023-05-07T07:09:43;31.45;;;17.70;;
68250;SDS011;55066;51.560;4.642;2023-05-07T07:12:10;26.10;;;16.08;;
68250;SDS011;55066;51.560;4.642;2023-05-07T07:14:39;27.83;;;16.75;;
68250;SDS011;55066;51.560;4.642;2023-05-07T07:17:04;28.83;;;17.35;;
68250;SDS011;55066;51.560;4.642;2023-05-07T07:19:30;26.33;;;17.17;;
68250;SDS011;55066;51.560;4.642;2023-05-07T07:21:56;28.23;;;16.17;;
68250;SDS011;55066;51.560;4.642;2023-05-07T07:24:23;27.55;;;16.85;;
68250;SDS011;55066;51.560;4.642;2023-05-07T07:26:55;29.48;;;16.88;;
68250;SDS011;55066;51.560;4.642;2023-05-07T07:29:22;29.40;;;16.08;;
68250;SDS011;55066;51.560;4.642;2023-05-07T07:31:50;27.92;;;16.75;;
68250;SDS011;55066;51.560;4.642;2023-05-07T07:34:18;27.20;;;16.10;;
68250;SDS011;55066;51.560;4.642;2023-05-07T07:36:45;29.90;;;16.90;;
68250;SDS011;55066;51.560;4.642;2023-05-07T07:39:17;28.33;;;17.05;;
68250;SDS011;55066;51.560;4.642;2023-05-07T07:41:45;29.02;;;15.93;;
68250;SDS011;55066;51.560;4.642;2023-05-07T07:44:12;26.58;;;16.35;;
68250;SDS011;55066;51.560;4.642;2023-05-07T07:46:38;28.70;;;16.03;;
68250;SDS011;55066;51.560;4.642;2023-05-07T07:49:05;26.85;;;15.82;;
68250;SDS011;55066;51.560;4.642;2023-05-07T07:51:31;26.35;;;15.38;;
68250;SDS011;55066;51.560;4.642;2023-05-07T07:53:58;25.50;;;16.15;;
68250;SDS011;55066;51.560;4.642;2023-05-07T07:56:23;25.67;;;15.30;;
68250;SDS011;55066;51.560;4.642;2023-05-07T07:58:50;23.63;;;14.82;;
68250;SDS011;55066;51.560;4.642;2023-05-07T08:01:20;25.33;;;15.02;;
68250;SDS011;55066;51.560;4.642;2023-05-07T08:03:46;25.20;;;15.40;;
68250;SDS011;55066;51.560;4.642;2023-05-07T08:06:12;26.23;;;15.30;;
68250;SDS011;55066;51.560;4.642;2023-05-07T08:08:40;25.27;;;14.88;;
68250;SDS011;55066;51.560;4.642;2023-05-07T08:11:05;24.98;;;14.45;;
68250;SDS011;55066;51.560;4.642;2023-05-07T08:13:34;22.27;;;13.70;;
68250;SDS011;55066;51.560;4.642;2023-05-07T08:16:00;27.50;;;14.82;;
68250;SDS011;55066;51.560;4.642;2023-05-07T08:18:28;22.53;;;13.93;;
68250;SDS011;55066;51.560;4.642;2023-05-07T08:21:00;23.70;;;14.63;;
68250;SDS011;55066;51.560;4.642;2023-05-07T08:23:26;23.08;;;13.65;;
68250;SDS011;55066;51.560;4.642;2023-05-07T08:25:53;23.85;;;14.45;;
68250;SDS011;55066;51.560;4.642;2023-05-07T08:28:19;28.40;;;13.27;;
68250;SDS011;55066;51.560;4.642;2023-05-07T08:30:47;21.07;;;13.67;;
68250;SDS011;55066;51.560;4.642;2023-05-07T08:33:13;20.50;;;13.07;;
68250;SDS011;55066;51.560;4.642;2023-05-07T08:35:38;21.10;;;13.57;;
68250;SDS011;55066;51.560;4.642;2023-05-07T08:38:06;21.30;;;13.40;;
68250;SDS011;55066;51.560;4.642;2023-05-07T08:40:33;22.35;;;13.52;;
68250;SDS011;55066;51.560;4.642;2023-05-07T08:43:05;21.98;;;14.40;;
68250;SDS011;55066;51.560;4.642;2023-05-07T08:45:31;20.27;;;13.00;;
68250;SDS011;55066;51.560;4.642;2023-05-07T08:47:59;21.20;;;13.13;;
68250;SDS011;55066;51.560;4.642;2023-05-07T08:50:31;20.90;;;12.90;;
68250;SDS011;55066;51.560;4.642;2023-05-07T08:53:02;19.35;;;12.88;;
68250;SDS011;55066;51.560;4.642;2023-05-07T08:55:30;22.45;;;12.88;;
68250;SDS011;55066;51.560;4.642;2023-05-07T08:57:56;22.67;;;12.40;;
68250;SDS011;55066;51.560;4.642;2023-05-07T09:00:25;19.67;;;12.60;;
68250;SDS011;55066;51.560;4.642;2023-05-07T09:02:52;18.58;;;11.55;;
68250;SDS011;55066;51.560;4.642;2023-05-07T09:05:23;18.75;;;11.25;;
68250;SDS011;55066;51.560;4.642;2023-05-07T09:07:50;17.08;;;11.30;;
68250;SDS011;55066;51.560;4.642;2023-05-07T09:10:16;19.53;;;12.37;;
68250;SDS011;55066;51.560;4.642;2023-05-07T09:12:46;18.38;;;11.65;;
68250;SDS011;55066;51.560;4.642;2023-05-07T09:15:12;15.90;;;10.73;;
68250;SDS011;55066;51.560;4.642;2023-05-07T09:17:38;18.33;;;11.68;;
68250;SDS011;55066;51.560;4.642;2023-05-07T09:20:06;16.08;;;10.57;;
68250;SDS011;55066;51.560;4.642;2023-05-07T09:22:32;16.00;;;9.50;;
68250;SDS011;55066;51.560;4.642;2023-05-07T09:25:02;15.18;;;9.48;;
68250;SDS011;55066;51.560;4.642;2023-05-07T09:27:30;17.42;;;10.80;;
68250;SDS011;55066;51.560;4.642;2023-05-07T09:29:57;17.05;;;11.05;;
68250;SDS011;55066;51.560;4.642;2023-05-07T09:32:24;17.67;;;11.20;;
68250;SDS011;55066;51.560;4.642;2023-05-07T09:34:50;15.85;;;10.90;;
68250;SDS011;55066;51.560;4.642;2023-05-07T09:37:20;18.65;;;11.38;;
68250;SDS011;55066;51.560;4.642;2023-05-07T09:39:47;18.77;;;11.53;;
68250;SDS011;55066;51.560;4.642;2023-05-07T09:42:24;18.35;;;11.20;;
68250;SDS011;55066;51.560;4.642;2023-05-07T09:44:54;17.83;;;11.65;;
68250;SDS011;55066;51.560;4.642;2023-05-07T09:47:23;18.75;;;10.25;;
68250;SDS011;55066;51.560;4.642;2023-05-07T09:49:59;15.50;;;10.63;;
68250;SDS011;55066;51.560;4.642;2023-05-07T09:52:30;15.37;;;9.37;;
68250;SDS011;55066;51.560;4.642;2023-05-07T09:55:02;15.85;;;10.10;;
68250;SDS011;55066;51.560;4.642;2023-05-07T09:57:32;15.60;;;8.88;;
68250;SDS011;55066;51.560;4.642;2023-05-07T10:00:02;14.73;;;10.00;;
68250;SDS011;55066;51.560;4.642;2023-05-07T10:02:46;15.52;;;9.60;;
68250;SDS011;55066;51.560;4.642;2023-05-07T10:05:15;18.40;;;11.00;;
68250;SDS011;55066;51.560;4.642;2023-05-07T10:07:41;14.57;;;10.25;;
68250;SDS011;55066;51.560;4.642;2023-05-07T10:10:09;18.17;;;10.43;;
68250;SDS011;55066;51.560;4.642;2023-05-07T10:12:41;17.90;;;10.30;;
68250;SDS011;55066;51.560;4.642;2023-05-07T10:15:13;15.30;;;10.00;;
68250;SDS011;55066;51.560;4.642;2023-05-07T10:17:42;15.33;;;10.57;;
68250;SDS011;55066;51.560;4.642;2023-05-07T10:20:12;17.48;;;10.18;;
68250;SDS011;55066;51.560;4.642;2023-05-07T10:22:41;16.38;;;10.10;;
68250;SDS011;55066;51.560;4.642;2023-05-07T10:25:14;18.58;;;9.98;;
68250;SDS011;55066;51.560;4.642;2023-05-07T10:27:44;15.25;;;10.23;;
68250;SDS011;55066;51.560;4.642;2023-05-07T10:32:49;16.15;;;10.70;;
68250;SDS011;55066;51.560;4.642;2023-05-07T10:35:24;17.50;;;11.10;;
68250;SDS011;55066;51.560;4.642;2023-05-07T10:37:52;17.77;;;10.52;;
68250;SDS011;55066;51.560;4.642;2023-05-07T10:40:20;15.18;;;10.18;;
68250;SDS011;55066;51.560;4.642;2023-05-07T10:43:00;16.73;;;10.03;;
68250;SDS011;55066;51.560;4.642;2023-05-07T10:45:30;16.25;;;10.80;;
68250;SDS011;55066;51.560;4.642;2023-05-07T10:50:42;15.82;;;11.02;;
68250;SDS011;55066;51.560;4.642;2023-05-07T10:53:27;16.23;;;11.48;;
68250;SDS011;55066;51.560;4.642;2023-05-07T10:58:46;16.42;;;11.13;;
68250;SDS011;55066;51.560;4.642;2023-05-07T11:04:22;18.38;;;9.50;;
68250;SDS011;55066;51.560;4.642;2023-05-07T11:15:15;13.63;;;9.13;;
68250;SDS011;55066;51.560;4.642;2023-05-07T11:17:59;11.95;;;7.47;;
68250;SDS011;55066;51.560;4.642;2023-05-07T11:20:45;13.13;;;8.23;;
68250;SDS011;55066;51.560;4.642;2023-05-07T11:26:09;12.30;;;8.48;;
68250;SDS011;55066;51.560;4.642;2023-05-07T11:28:38;15.05;;;9.20;;
68250;SDS011;55066;51.560;4.642;2023-05-07T11:31:09;14.32;;;9.18;;
68250;SDS011;55066;51.560;4.642;2023-05-07T11:33:37;15.05;;;8.63;;
68250;SDS011;55066;51.560;4.642;2023-05-07T11:36:05;14.43;;;9.27;;
68250;SDS011;55066;51.560;4.642;2023-05-07T11:38:37;14.15;;;9.05;;
68250;SDS011;55066;51.560;4.642;2023-05-07T11:41:03;16.13;;;9.57;;
68250;SDS011;55066;51.560;4.642;2023-05-07T11:43:32;15.77;;;9.38;;
68250;SDS011;55066;51.560;4.642;2023-05-07T11:46:08;15.77;;;10.10;;
68250;SDS011;55066;51.560;4.642;2023-05-07T11:48:35;17.30;;;10.15;;
68250;SDS011;55066;51.560;4.642;2023-05-07T11:51:01;16.90;;;10.02;;
68250;SDS011;55066;51.560;4.642;2023-05-07T11:53:38;15.90;;;10.18;;
68250;SDS011;55066;51.560;4.642;2023-05-07T11:56:12;14.47;;;9.33;;
68250;SDS011;55066;51.560;4.642;2023-05-07T11:58:41;19.60;;;10.57;;
68250;SDS011;55066;51.560;4.642;2023-05-07T12:01:08;18.63;;;10.27;;
68250;SDS011;55066;51.560;4.642;2023-05-07T12:03:35;16.02;;;10.10;;
68250;SDS011;55066;51.560;4.642;2023-05-07T12:06:16;15.77;;;10.93;;
68250;SDS011;55066;51.560;4.642;2023-05-07T12:08:44;21.50;;;12.30;;
68250;SDS011;55066;51.560;4.642;2023-05-07T12:11:13;19.27;;;12.25;;
68250;SDS011;55066;51.560;4.642;2023-05-07T12:13:47;22.80;;;13.07;;
68250;SDS011;55066;51.560;4.642;2023-05-07T12:16:12;26.60;;;14.07;;
68250;SDS011;55066;51.560;4.642;2023-05-07T12:18:38;23.63;;;14.20;;
68250;SDS011;55066;51.560;4.642;2023-05-07T12:21:04;22.03;;;14.33;;
68250;SDS011;55066;51.560;4.642;2023-05-07T12:23:31;25.02;;;15.75;;
68250;SDS011;55066;51.560;4.642;2023-05-07T12:25:58;22.15;;;15.15;;
68250;SDS011;55066;51.560;4.642;2023-05-07T12:28:24;24.42;;;15.48;;
68250;SDS011;55066;51.560;4.642;2023-05-07T12:30:51;24.95;;;14.30;;
68250;SDS011;55066;51.560;4.642;2023-05-07T12:33:26;25.53;;;13.73;;
68250;SDS011;55066;51.560;4.642;2023-05-07T12:35:54;22.60;;;13.65;;
68250;SDS011;55066;51.560;4.642;2023-05-07T12:38:20;17.92;;;11.88;;
68250;SDS011;55066;51.560;4.642;2023-05-07T12:40:47;23.23;;;13.43;;
68250;SDS011;55066;51.560;4.642;2023-05-07T12:45:42;31.48;;;16.83;;
68250;SDS011;55066;51.560;4.642;2023-05-07T12:48:09;29.33;;;17.25;;
68250;SDS011;55066;51.560;4.642;2023-05-07T12:50:36;27.48;;;16.27;;
68250;SDS011;55066;51.560;4.642;2023-05-07T12:53:05;26.40;;;15.10;;
68250;SDS011;55066;51.560;4.642;2023-05-07T12:55:44;27.75;;;15.63;;
68250;SDS011;55066;51.560;4.642;2023-05-07T12:58:28;30.33;;;16.00;;
68250;SDS011;55066;51.560;4.642;2023-05-07T13:00:56;30.48;;;16.92;;
68250;SDS011;55066;51.560;4.642;2023-05-07T13:03:32;28.15;;;14.95;;
68250;SDS011;55066;51.560;4.642;2023-05-07T13:06:00;28.33;;;15.27;;
68250;SDS011;55066;51.560;4.642;2023-05-07T13:08:30;30.95;;;16.23;;
68250;SDS011;55066;51.560;4.642;2023-05-07T13:10:59;33.30;;;17.70;;
68250;SDS011;55066;51.560;4.642;2023-05-07T13:13:32;28.90;;;16.58;;
68250;SDS011;55066;51.560;4.642;2023-05-07T13:15:59;32.78;;;16.02;;
68250;SDS011;55066;51.560;4.642;2023-05-07T13:18:25;29.17;;;15.23;;
68250;SDS011;55066;51.560;4.642;2023-05-07T13:20:51;27.73;;;14.05;;
68250;SDS011;55066;51.560;4.642;2023-05-07T13:23:18;27.87;;;13.67;;
68250;SDS011;55066;51.560;4.642;2023-05-07T13:25:43;28.10;;;13.45;;
68250;SDS011;55066;51.560;4.642;2023-05-07T13:28:09;25.90;;;13.57;;
68250;SDS011;55066;51.560;4.642;2023-05-07T13:30:34;24.33;;;12.70;;
68250;SDS011;55066;51.560;4.642;2023-05-07T13:33:00;25.92;;;13.05;;
68250;SDS011;55066;51.560;4.642;2023-05-07T13:35:25;27.03;;;13.47;;
68250;SDS011;55066;51.560;4.642;2023-05-07T13:37:51;24.63;;;12.95;;
68250;SDS011;55066;51.560;4.642;2023-05-07T13:40:18;22.48;;;11.73;;
68250;SDS011;55066;51.560;4.642;2023-05-07T13:42:45;21.10;;;11.23;;
68250;SDS011;55066;51.560;4.642;2023-05-07T13:45:10;25.08;;;11.73;;
68250;SDS011;55066;51.560;4.642;2023-05-07T13:47:39;23.15;;;11.25;;
68250;SDS011;55066;51.560;4.642;2023-05-07T13:50:08;23.60;;;11.52;;
68250;SDS011;55066;51.560;4.642;2023-05-07T13:52:34;23.43;;;12.00;;
68250;SDS011;55066;51.560;4.642;2023-05-07T13:55:00;22.42;;;11.98;;
68250;SDS011;55066;51.560;4.642;2023-05-07T13:57:25;26.83;;;12.93;;
68250;SDS011;55066;51.560;4.642;2023-05-07T13:59:52;28.30;;;13.80;;
68250;SDS011;55066;51.560;4.642;2023-05-07T14:02:17;26.47;;;13.80;;
68250;SDS011;55066;51.560;4.642;2023-05-07T14:04:43;27.60;;;13.90;;
68250;SDS011;55066;51.560;4.642;2023-05-07T14:07:08;25.23;;;12.73;;
68250;SDS011;55066;51.560;4.642;2023-05-07T14:09:35;26.95;;;13.85;;
68250;SDS011;55066;51.560;4.642;2023-05-07T14:12:00;28.53;;;14.67;;
68250;SDS011;55066;51.560;4.642;2023-05-07T14:14:26;25.85;;;13.80;;
68250;SDS011;55066;51.560;4.642;2023-05-07T14:16:54;31.40;;;15.25;;
68250;SDS011;55066;51.560;4.642;2023-05-07T14:19:21;29.80;;;15.20;;
68250;SDS011;55066;51.560;4.642;2023-05-07T14:21:47;31.02;;;15.77;;
68250;SDS011;55066;51.560;4.642;2023-05-07T14:24:13;32.70;;;17.73;;
68250;SDS011;55066;51.560;4.642;2023-05-07T14:26:39;32.43;;;16.90;;
68250;SDS011;55066;51.560;4.642;2023-05-07T14:29:04;37.10;;;18.57;;
68250;SDS011;55066;51.560;4.642;2023-05-07T14:31:29;36.13;;;19.33;;
68250;SDS011;55066;51.560;4.642;2023-05-07T14:33:58;37.45;;;20.00;;
68250;SDS011;55066;51.560;4.642;2023-05-07T14:36:23;38.03;;;19.95;;
68250;SDS011;55066;51.560;4.642;2023-05-07T14:38:51;38.30;;;19.25;;
68250;SDS011;55066;51.560;4.642;2023-05-07T14:41:19;36.65;;;19.85;;
68250;SDS011;55066;51.560;4.642;2023-05-07T14:43:46;32.57;;;17.93;;
68250;SDS011;55066;51.560;4.642;2023-05-07T14:46:18;36.90;;;18.30;;
68250;SDS011;55066;51.560;4.642;2023-05-07T14:48:44;32.90;;;18.20;;
68250;SDS011;55066;51.560;4.642;2023-05-07T14:51:12;36.85;;;18.77;;
68250;SDS011;55066;51.560;4.642;2023-05-07T14:53:43;36.90;;;18.92;;
68250;SDS011;55066;51.560;4.642;2023-05-07T14:56:09;35.60;;;18.33;;